Nearby METAR Reports

 

KAVP - Avoca/Wilkes B., Pennsylvania, USA
Distance from station: N 16mi, 25km
Updated: 05/20/2019 12:54pm
Mostly cloudy
Mostly cloudy
 Wind from SW
Wind: SW 13 mph , 20 km/h, Gust: 21 mph , 33 km/h
Temperature: 73°F , 23°C
Dew Point: 63°F , 17°C
Humidity: 69%
Barometer: 29.80 inHg , 1009.1 hPa
Clouds: Mostly cloudy
Visibility: 9 miles , 14 km
Cloud details: Partly cloudy 4900 ft
Mostly cloudy 6500 ft
2019/05/20 16:54 KAVP 201654Z 23011G18KT 9SM SCT049 BKN065 23/17 A2980 RMK AO2 SLP083 T02330172
KMPO - Mt. Pocono, Pennsylvania, USA
Distance from station: E 20mi, 33km
Updated: 05/20/2019 12:53pm
Overcast
Overcast
 Wind from WSW
Wind: WSW 17 mph , 28 km/h, Gust: 25 mph , 41 km/h
Temperature: 72°F , 22°C
Dew Point: 59°F , 15°C
Humidity: 65%
Barometer: 29.84 inHg , 1010.5 hPa
Clouds: Overcast
Visibility: 10 miles , 16 km
Cloud details: Mostly cloudy 4100 ft
Overcast 5500 ft
2019/05/20 16:53 KMPO 201653Z AUTO 25015G22KT 10SM BKN041 OVC055 22/15 A2984 RMK AO2 PK WND 25028/1617 SLP094 T02220150
 
KABE - Allentown, Pennsylvania, USA
Distance from station: SSE 36mi, 58km
Updated: 05/20/2019 12:51pm
Partly cloudy
Partly cloudy
 Wind from WSW
Wind: WSW 16 mph , 26 km/h, Gust: 26 mph , 43 km/h
Temperature: 82°F , 28°C
Heat Index: 84°F , 29°C
Dew Point: 64°F , 18°C
Humidity: 55%
Barometer: 29.80 inHg , 1009.1 hPa
Clouds: Partly cloudy
Visibility: 10 miles , 16 km
Cloud details: Few Clouds 4700 ft
Partly cloudy 6000 ft
2019/05/20 16:51 KABE 201651Z 25014G23KT 10SM FEW047 SCT060 28/18 A2980 RMK AO2 SLP089 T02830178
KXLL - Allentown Queen, Pennsylvania, USA
Distance from station: SSE 41mi, 65km
Updated: 05/20/2019 12:55pm
Partly cloudy
Partly cloudy
 Wind from SW
Wind: SW 14 mph , 22 km/h, Gust: 22 mph , 35 km/h
Temperature: 81°F , 27°C
Heat Index: 83°F , 28°C
Dew Point: 64°F , 18°C
Humidity: 58%
Barometer: 29.82 inHg , 1009.8 hPa
Clouds: Partly cloudy
Visibility: 10 miles , 16 km
Cloud details: Partly cloudy 4800 ft
Partly cloudy 6000 ft
Partly cloudy 6500 ft
2019/05/20 16:55 KXLL 201655Z AUTO 22012G19KT 10SM SCT048 SCT060 SCT065 27/18 A2982 RMK AO2